sensor_id;sensor_type;location;lat;lon;timestamp;P1;durP1;ratioP1;P2;durP2;ratioP2
44955;SDS011;30686;52.512;-1.188;2023-03-14T00:02:19;9.25;;;2.28;;
44955;SDS011;30686;52.512;-1.188;2023-03-14T00:04:46;3.30;;;1.40;;
44955;SDS011;30686;52.512;-1.188;2023-03-14T00:07:12;6.28;;;1.55;;
44955;SDS011;30686;52.512;-1.188;2023-03-14T00:09:39;1.95;;;1.23;;
44955;SDS011;30686;52.512;-1.188;2023-03-14T00:12:05;6.60;;;2.00;;
44955;SDS011;30686;52.512;-1.188;2023-03-14T00:14:32;4.55;;;1.50;;
44955;SDS011;30686;52.512;-1.188;2023-03-14T00:16:58;3.72;;;1.33;;
44955;SDS011;30686;52.512;-1.188;2023-03-14T00:19:25;7.18;;;1.60;;
44955;SDS011;30686;52.512;-1.188;2023-03-14T00:21:51;4.07;;;1.38;;
44955;SDS011;30686;52.512;-1.188;2023-03-14T00:24:17;7.72;;;1.52;;
44955;SDS011;30686;52.512;-1.188;2023-03-14T00:26:44;9.48;;;1.60;;
44955;SDS011;30686;52.512;-1.188;2023-03-14T00:29:10;4.07;;;0.80;;
44955;SDS011;30686;52.512;-1.188;2023-03-14T00:31:39;4.70;;;1.20;;
44955;SDS011;30686;52.512;-1.188;2023-03-14T00:34:05;6.95;;;1.15;;
44955;SDS011;30686;52.512;-1.188;2023-03-14T00:36:32;4.68;;;2.05;;
44955;SDS011;30686;52.512;-1.188;2023-03-14T00:39:00;2.30;;;0.98;;
44955;SDS011;30686;52.512;-1.188;2023-03-14T00:41:27;9.38;;;1.80;;
44955;SDS011;30686;52.512;-1.188;2023-03-14T00:43:53;6.28;;;1.48;;
44955;SDS011;30686;52.512;-1.188;2023-03-14T00:46:19;1.75;;;0.98;;
44955;SDS011;30686;52.512;-1.188;2023-03-14T00:48:45;6.95;;;1.27;;
44955;SDS011;30686;52.512;-1.188;2023-03-14T00:51:12;7.32;;;0.98;;
44955;SDS011;30686;52.512;-1.188;2023-03-14T00:53:40;2.25;;;1.00;;
44955;SDS011;30686;52.512;-1.188;2023-03-14T00:56:10;3.17;;;1.13;;
44955;SDS011;30686;52.512;-1.188;2023-03-14T00:58:37;4.78;;;1.45;;
44955;SDS011;30686;52.512;-1.188;2023-03-14T01:03:33;2.78;;;1.10;;
44955;SDS011;30686;52.512;-1.188;2023-03-14T01:06:33;5.60;;;1.40;;
44955;SDS011;30686;52.512;-1.188;2023-03-14T01:08:52;6.63;;;1.45;;
44955;SDS011;30686;52.512;-1.188;2023-03-14T01:11:23;2.50;;;0.90;;
44955;SDS011;30686;52.512;-1.188;2023-03-14T01:13:50;3.70;;;1.15;;
44955;SDS011;30686;52.512;-1.188;2023-03-14T01:16:18;7.45;;;1.13;;
44955;SDS011;30686;52.512;-1.188;2023-03-14T01:18:47;3.83;;;1.00;;
44955;SDS011;30686;52.512;-1.188;2023-03-14T01:21:18;1.88;;;0.90;;
44955;SDS011;30686;52.512;-1.188;2023-03-14T01:23:45;3.78;;;1.35;;
44955;SDS011;30686;52.512;-1.188;2023-03-14T01:26:15;4.70;;;1.40;;
44955;SDS011;30686;52.512;-1.188;2023-03-14T01:28:44;4.38;;;1.73;;
44955;SDS011;30686;52.512;-1.188;2023-03-14T01:31:13;3.55;;;1.20;;
44955;SDS011;30686;52.512;-1.188;2023-03-14T01:33:40;3.78;;;1.02;;
44955;SDS011;30686;52.512;-1.188;2023-03-14T01:36:07;3.50;;;0.82;;
44955;SDS011;30686;52.512;-1.188;2023-03-14T01:38:36;4.72;;;1.35;;
44955;SDS011;30686;52.512;-1.188;2023-03-14T01:41:03;2.15;;;1.08;;
44955;SDS011;30686;52.512;-1.188;2023-03-14T01:43:29;3.83;;;0.90;;
44955;SDS011;30686;52.512;-1.188;2023-03-14T01:48:37;3.22;;;1.00;;
44955;SDS011;30686;52.512;-1.188;2023-03-14T01:51:06;3.45;;;1.10;;
44955;SDS011;30686;52.512;-1.188;2023-03-14T01:53:33;2.00;;;0.85;;
44955;SDS011;30686;52.512;-1.188;2023-03-14T01:55:59;4.10;;;1.48;;
44955;SDS011;30686;52.512;-1.188;2023-03-14T01:58:27;2.10;;;1.02;;
44955;SDS011;30686;52.512;-1.188;2023-03-14T02:00:56;4.78;;;1.20;;
44955;SDS011;30686;52.512;-1.188;2023-03-14T02:03:23;3.53;;;1.20;;
44955;SDS011;30686;52.512;-1.188;2023-03-14T02:05:50;5.40;;;1.23;;
44955;SDS011;30686;52.512;-1.188;2023-03-14T02:08:18;2.53;;;0.98;;
44955;SDS011;30686;52.512;-1.188;2023-03-14T02:10:47;4.35;;;1.55;;
44955;SDS011;30686;52.512;-1.188;2023-03-14T02:13:14;3.67;;;1.10;;
44955;SDS011;30686;52.512;-1.188;2023-03-14T02:15:40;0.90;;;0.80;;
44955;SDS011;30686;52.512;-1.188;2023-03-14T02:18:07;2.45;;;1.33;;
44955;SDS011;30686;52.512;-1.188;2023-03-14T02:23:24;5.47;;;1.60;;
44955;SDS011;30686;52.512;-1.188;2023-03-14T02:25:54;6.03;;;1.25;;
44955;SDS011;30686;52.512;-1.188;2023-03-14T02:28:28;7.00;;;1.42;;
44955;SDS011;30686;52.512;-1.188;2023-03-14T02:30:54;4.75;;;1.10;;
44955;SDS011;30686;52.512;-1.188;2023-03-14T02:33:20;3.08;;;1.38;;
44955;SDS011;30686;52.512;-1.188;2023-03-14T02:40:58;3.70;;;1.08;;
44955;SDS011;30686;52.512;-1.188;2023-03-14T02:43:24;2.92;;;1.30;;
44955;SDS011;30686;52.512;-1.188;2023-03-14T02:45:51;10.18;;;1.95;;
44955;SDS011;30686;52.512;-1.188;2023-03-14T02:48:28;3.25;;;1.48;;
44955;SDS011;30686;52.512;-1.188;2023-03-14T02:50:56;6.05;;;1.45;;
44955;SDS011;30686;52.512;-1.188;2023-03-14T02:53:25;5.22;;;1.30;;
44955;SDS011;30686;52.512;-1.188;2023-03-14T02:55:51;2.97;;;1.40;;
44955;SDS011;30686;52.512;-1.188;2023-03-14T02:58:18;10.27;;;1.70;;
44955;SDS011;30686;52.512;-1.188;2023-03-14T03:03:49;4.40;;;1.30;;
44955;SDS011;30686;52.512;-1.188;2023-03-14T03:06:15;5.40;;;1.30;;
44955;SDS011;30686;52.512;-1.188;2023-03-14T03:08:41;5.63;;;1.85;;
44955;SDS011;30686;52.512;-1.188;2023-03-14T03:11:08;7.80;;;2.28;;
44955;SDS011;30686;52.512;-1.188;2023-03-14T03:13:34;4.45;;;1.20;;
44955;SDS011;30686;52.512;-1.188;2023-03-14T03:16:00;6.95;;;1.60;;
44955;SDS011;30686;52.512;-1.188;2023-03-14T03:18:28;7.22;;;1.13;;
44955;SDS011;30686;52.512;-1.188;2023-03-14T03:20:59;1.63;;;1.10;;
44955;SDS011;30686;52.512;-1.188;2023-03-14T03:23:25;5.40;;;1.40;;
44955;SDS011;30686;52.512;-1.188;2023-03-14T03:25:52;8.38;;;1.48;;
44955;SDS011;30686;52.512;-1.188;2023-03-14T03:28:18;5.00;;;1.42;;
44955;SDS011;30686;52.512;-1.188;2023-03-14T03:30:45;3.05;;;1.30;;
44955;SDS011;30686;52.512;-1.188;2023-03-14T03:33:11;2.10;;;1.00;;
44955;SDS011;30686;52.512;-1.188;2023-03-14T03:35:44;3.53;;;1.10;;
44955;SDS011;30686;52.512;-1.188;2023-03-14T03:38:11;2.50;;;1.20;;
44955;SDS011;30686;52.512;-1.188;2023-03-14T03:40:41;3.58;;;2.83;;
44955;SDS011;30686;52.512;-1.188;2023-03-14T03:43:07;3.03;;;0.93;;
44955;SDS011;30686;52.512;-1.188;2023-03-14T03:45:33;1.13;;;0.80;;
44955;SDS011;30686;52.512;-1.188;2023-03-14T03:48:00;2.35;;;0.95;;
44955;SDS011;30686;52.512;-1.188;2023-03-14T03:50:26;1.02;;;0.82;;
44955;SDS011;30686;52.512;-1.188;2023-03-14T03:52:52;1.35;;;0.80;;
44955;SDS011;30686;52.512;-1.188;2023-03-14T03:55:19;1.00;;;0.90;;
44955;SDS011;30686;52.512;-1.188;2023-03-14T03:57:48;1.63;;;0.80;;
44955;SDS011;30686;52.512;-1.188;2023-03-14T04:00:14;4.97;;;1.05;;
44955;SDS011;30686;52.512;-1.188;2023-03-14T04:02:43;4.45;;;1.30;;
44955;SDS011;30686;52.512;-1.188;2023-03-14T04:05:09;2.53;;;1.40;;
44955;SDS011;30686;52.512;-1.188;2023-03-14T04:07:35;3.97;;;1.10;;
44955;SDS011;30686;52.512;-1.188;2023-03-14T04:10:01;1.35;;;0.90;;
44955;SDS011;30686;52.512;-1.188;2023-03-14T04:12:28;1.27;;;1.02;;
44955;SDS011;30686;52.512;-1.188;2023-03-14T04:14:54;2.17;;;0.90;;
44955;SDS011;30686;52.512;-1.188;2023-03-14T04:17:20;0.95;;;0.80;;
44955;SDS011;30686;52.512;-1.188;2023-03-14T04:19:47;2.13;;;1.15;;
44955;SDS011;30686;52.512;-1.188;2023-03-14T04:22:19;0.60;;;0.60;;
44955;SDS011;30686;52.512;-1.188;2023-03-14T04:24:48;0.60;;;0.60;;
44955;SDS011;30686;52.512;-1.188;2023-03-14T04:27:14;2.08;;;0.80;;
44955;SDS011;30686;52.512;-1.188;2023-03-14T04:29:41;1.02;;;0.95;;
44955;SDS011;30686;52.512;-1.188;2023-03-14T04:32:07;0.82;;;0.70;;
44955;SDS011;30686;52.512;-1.188;2023-03-14T04:34:34;1.25;;;0.70;;
44955;SDS011;30686;52.512;-1.188;2023-03-14T04:37:00;0.57;;;0.57;;
44955;SDS011;30686;52.512;-1.188;2023-03-14T04:39:26;1.05;;;0.68;;
44955;SDS011;30686;52.512;-1.188;2023-03-14T04:41:52;0.60;;;0.60;;
44955;SDS011;30686;52.512;-1.188;2023-03-14T04:44:19;0.60;;;0.60;;
44955;SDS011;30686;52.512;-1.188;2023-03-14T04:46:45;0.80;;;0.77;;
44955;SDS011;30686;52.512;-1.188;2023-03-14T04:49:11;0.65;;;0.65;;
44955;SDS011;30686;52.512;-1.188;2023-03-14T04:51:40;1.25;;;0.80;;
44955;SDS011;30686;52.512;-1.188;2023-03-14T04:54:07;1.85;;;0.80;;
44955;SDS011;30686;52.512;-1.188;2023-03-14T04:56:33;0.60;;;0.60;;
44955;SDS011;30686;52.512;-1.188;2023-03-14T04:58:59;0.93;;;0.80;;
44955;SDS011;30686;52.512;-1.188;2023-03-14T05:01:25;0.93;;;0.82;;
44955;SDS011;30686;52.512;-1.188;2023-03-14T05:03:54;1.08;;;1.02;;
44955;SDS011;30686;52.512;-1.188;2023-03-14T05:06:21;1.73;;;0.80;;
44955;SDS011;30686;52.512;-1.188;2023-03-14T05:08:47;1.08;;;0.88;;
44955;SDS011;30686;52.512;-1.188;2023-03-14T05:11:13;0.88;;;0.73;;
44955;SDS011;30686;52.512;-1.188;2023-03-14T05:13:39;0.80;;;0.80;;
44955;SDS011;30686;52.512;-1.188;2023-03-14T05:16:09;1.30;;;0.98;;
44955;SDS011;30686;52.512;-1.188;2023-03-14T05:18:35;2.13;;;1.10;;
44955;SDS011;30686;52.512;-1.188;2023-03-14T05:21:02;2.38;;;1.10;;
44955;SDS011;30686;52.512;-1.188;2023-03-14T05:23:28;1.33;;;1.05;;
44955;SDS011;30686;52.512;-1.188;2023-03-14T05:25:55;2.88;;;0.95;;
44955;SDS011;30686;52.512;-1.188;2023-03-14T05:28:23;1.25;;;1.15;;
44955;SDS011;30686;52.512;-1.188;2023-03-14T05:30:49;0.75;;;0.75;;
44955;SDS011;30686;52.512;-1.188;2023-03-14T05:33:18;1.63;;;0.90;;
44955;SDS011;30686;52.512;-1.188;2023-03-14T05:35:47;0.73;;;0.63;;
44955;SDS011;30686;52.512;-1.188;2023-03-14T05:38:13;2.05;;;0.70;;
44955;SDS011;30686;52.512;-1.188;2023-03-14T05:40:42;0.88;;;0.80;;
44955;SDS011;30686;52.512;-1.188;2023-03-14T05:43:10;1.40;;;0.80;;
44955;SDS011;30686;52.512;-1.188;2023-03-14T05:45:36;1.90;;;0.93;;
44955;SDS011;30686;52.512;-1.188;2023-03-14T05:48:02;0.88;;;0.70;;
44955;SDS011;30686;52.512;-1.188;2023-03-14T05:50:29;1.55;;;0.90;;
44955;SDS011;30686;52.512;-1.188;2023-03-14T05:52:56;1.88;;;1.13;;
44955;SDS011;30686;52.512;-1.188;2023-03-14T05:55:22;0.95;;;0.88;;
44955;SDS011;30686;52.512;-1.188;2023-03-14T05:57:49;0.80;;;0.80;;
44955;SDS011;30686;52.512;-1.188;2023-03-14T06:00:15;3.58;;;1.10;;
44955;SDS011;30686;52.512;-1.188;2023-03-14T06:02:41;2.67;;;0.90;;
44955;SDS011;30686;52.512;-1.188;2023-03-14T06:05:08;2.53;;;1.10;;
44955;SDS011;30686;52.512;-1.188;2023-03-14T06:07:34;2.42;;;1.30;;
44955;SDS011;30686;52.512;-1.188;2023-03-14T06:10:00;9.05;;;1.35;;
44955;SDS011;30686;52.512;-1.188;2023-03-14T06:12:26;0.98;;;0.93;;
44955;SDS011;30686;52.512;-1.188;2023-03-14T06:14:53;3.28;;;1.13;;
44955;SDS011;30686;52.512;-1.188;2023-03-14T06:17:19;2.60;;;1.35;;
44955;SDS011;30686;52.512;-1.188;2023-03-14T06:19:45;1.65;;;1.20;;
44955;SDS011;30686;52.512;-1.188;2023-03-14T06:22:12;1.67;;;1.00;;
44955;SDS011;30686;52.512;-1.188;2023-03-14T06:24:39;1.27;;;0.70;;
44955;SDS011;30686;52.512;-1.188;2023-03-14T06:27:05;3.47;;;1.05;;
44955;SDS011;30686;52.512;-1.188;2023-03-14T06:29:31;3.05;;;1.08;;
44955;SDS011;30686;52.512;-1.188;2023-03-14T06:31:58;2.30;;;1.33;;
44955;SDS011;30686;52.512;-1.188;2023-03-14T06:34:24;1.65;;;0.98;;
44955;SDS011;30686;52.512;-1.188;2023-03-14T06:36:50;0.82;;;0.77;;
44955;SDS011;30686;52.512;-1.188;2023-03-14T06:39:17;1.58;;;0.98;;
44955;SDS011;30686;52.512;-1.188;2023-03-14T06:41:43;2.55;;;0.93;;
44955;SDS011;30686;52.512;-1.188;2023-03-14T06:44:09;2.08;;;1.00;;
44955;SDS011;30686;52.512;-1.188;2023-03-14T06:46:35;1.10;;;0.90;;
44955;SDS011;30686;52.512;-1.188;2023-03-14T06:49:02;2.30;;;1.40;;
44955;SDS011;30686;52.512;-1.188;2023-03-14T06:51:28;1.70;;;1.10;;
44955;SDS011;30686;52.512;-1.188;2023-03-14T06:53:54;3.10;;;1.50;;
44955;SDS011;30686;52.512;-1.188;2023-03-14T06:56:21;4.35;;;1.33;;
44955;SDS011;30686;52.512;-1.188;2023-03-14T06:58:47;4.50;;;1.20;;
44955;SDS011;30686;52.512;-1.188;2023-03-14T07:01:17;5.50;;;1.30;;
44955;SDS011;30686;52.512;-1.188;2023-03-14T07:03:46;3.10;;;1.30;;
44955;SDS011;30686;52.512;-1.188;2023-03-14T07:06:12;1.13;;;0.95;;
44955;SDS011;30686;52.512;-1.188;2023-03-14T07:08:38;2.55;;;1.23;;
44955;SDS011;30686;52.512;-1.188;2023-03-14T07:11:04;2.75;;;1.20;;
44955;SDS011;30686;52.512;-1.188;2023-03-14T07:13:31;2.22;;;1.10;;
44955;SDS011;30686;52.512;-1.188;2023-03-14T07:15:57;2.90;;;1.38;;
44955;SDS011;30686;52.512;-1.188;2023-03-14T07:18:23;2.88;;;1.30;;
44955;SDS011;30686;52.512;-1.188;2023-03-14T07:20:49;2.63;;;1.30;;
44955;SDS011;30686;52.512;-1.188;2023-03-14T07:23:16;2.42;;;1.10;;
44955;SDS011;30686;52.512;-1.188;2023-03-14T07:25:42;10.60;;;1.63;;
44955;SDS011;30686;52.512;-1.188;2023-03-14T07:28:08;4.20;;;1.30;;
44955;SDS011;30686;52.512;-1.188;2023-03-14T07:30:34;3.45;;;1.20;;
44955;SDS011;30686;52.512;-1.188;2023-03-14T07:33:01;6.28;;;1.80;;
44955;SDS011;30686;52.512;-1.188;2023-03-14T07:35:27;5.85;;;1.40;;
44955;SDS011;30686;52.512;-1.188;2023-03-14T07:37:53;7.20;;;2.53;;
44955;SDS011;30686;52.512;-1.188;2023-03-14T07:40:19;4.60;;;1.60;;
44955;SDS011;30686;52.512;-1.188;2023-03-14T07:42:46;7.22;;;2.13;;
44955;SDS011;30686;52.512;-1.188;2023-03-14T07:45:13;6.55;;;2.33;;
44955;SDS011;30686;52.512;-1.188;2023-03-14T07:47:39;3.60;;;1.40;;
44955;SDS011;30686;52.512;-1.188;2023-03-14T07:50:05;13.80;;;2.38;;
44955;SDS011;30686;52.512;-1.188;2023-03-14T07:52:32;5.30;;;1.77;;
44955;SDS011;30686;52.512;-1.188;2023-03-14T07:54:58;5.25;;;1.75;;
44955;SDS011;30686;52.512;-1.188;2023-03-14T07:57:24;9.82;;;2.00;;
44955;SDS011;30686;52.512;-1.188;2023-03-14T07:59:53;5.93;;;1.73;;
44955;SDS011;30686;52.512;-1.188;2023-03-14T08:02:21;11.30;;;2.38;;
44955;SDS011;30686;52.512;-1.188;2023-03-14T08:04:49;8.25;;;2.03;;
44955;SDS011;30686;52.512;-1.188;2023-03-14T08:07:15;7.82;;;1.98;;
44955;SDS011;30686;52.512;-1.188;2023-03-14T08:09:42;6.55;;;1.85;;
44955;SDS011;30686;52.512;-1.188;2023-03-14T08:12:09;3.40;;;1.70;;
44955;SDS011;30686;52.512;-1.188;2023-03-14T08:14:35;8.65;;;2.35;;
44955;SDS011;30686;52.512;-1.188;2023-03-14T08:17:01;11.48;;;1.75;;
44955;SDS011;30686;52.512;-1.188;2023-03-14T08:19:30;7.78;;;2.20;;
44955;SDS011;30686;52.512;-1.188;2023-03-14T08:21:57;7.15;;;2.10;;
44955;SDS011;30686;52.512;-1.188;2023-03-14T08:24:23;4.03;;;1.95;;
44955;SDS011;30686;52.512;-1.188;2023-03-14T08:26:49;3.67;;;1.50;;
44955;SDS011;30686;52.512;-1.188;2023-03-14T08:29:16;6.20;;;2.00;;
44955;SDS011;30686;52.512;-1.188;2023-03-14T08:31:42;5.78;;;2.05;;
44955;SDS011;30686;52.512;-1.188;2023-03-14T08:34:09;4.80;;;1.80;;
44955;SDS011;30686;52.512;-1.188;2023-03-14T08:36:35;9.00;;;2.40;;
44955;SDS011;30686;52.512;-1.188;2023-03-14T08:39:04;13.88;;;2.33;;
44955;SDS011;30686;52.512;-1.188;2023-03-14T08:41:32;8.05;;;2.15;;
44955;SDS011;30686;52.512;-1.188;2023-03-14T08:44:05;8.45;;;2.33;;
44955;SDS011;30686;52.512;-1.188;2023-03-14T08:46:31;10.38;;;1.75;;
44955;SDS011;30686;52.512;-1.188;2023-03-14T08:49:00;7.50;;;1.77;;
44955;SDS011;30686;52.512;-1.188;2023-03-14T08:51:29;13.73;;;2.15;;
44955;SDS011;30686;52.512;-1.188;2023-03-14T08:53:55;7.88;;;2.10;;
44955;SDS011;30686;52.512;-1.188;2023-03-14T08:56:22;8.23;;;1.40;;
44955;SDS011;30686;52.512;-1.188;2023-03-14T08:58:48;8.23;;;2.00;;
44955;SDS011;30686;52.512;-1.188;2023-03-14T09:01:14;12.73;;;1.92;;
44955;SDS011;30686;52.512;-1.188;2023-03-14T09:03:41;14.13;;;2.10;;
44955;SDS011;30686;52.512;-1.188;2023-03-14T09:06:08;6.35;;;1.55;;
44955;SDS011;30686;52.512;-1.188;2023-03-14T09:08:34;10.30;;;2.35;;
44955;SDS011;30686;52.512;-1.188;2023-03-14T09:11:01;5.35;;;1.60;;
44955;SDS011;30686;52.512;-1.188;2023-03-14T09:13:27;6.60;;;1.60;;
44955;SDS011;30686;52.512;-1.188;2023-03-14T09:15:54;11.23;;;2.67;;
44955;SDS011;30686;52.512;-1.188;2023-03-14T09:18:20;9.50;;;2.22;;
44955;SDS011;30686;52.512;-1.188;2023-03-14T09:20:47;7.13;;;3.15;;
44955;SDS011;30686;52.512;-1.188;2023-03-14T09:23:14;7.97;;;2.58;;
44955;SDS011;30686;52.512;-1.188;2023-03-14T09:25:42;6.53;;;2.38;;
44955;SDS011;30686;52.512;-1.188;2023-03-14T09:28:09;5.72;;;1.70;;
44955;SDS011;30686;52.512;-1.188;2023-03-14T09:30:35;7.95;;;2.25;;
44955;SDS011;30686;52.512;-1.188;2023-03-14T09:33:01;4.38;;;1.63;;
44955;SDS011;30686;52.512;-1.188;2023-03-14T09:35:27;6.20;;;1.95;;
44955;SDS011;30686;52.512;-1.188;2023-03-14T09:37:53;2.08;;;1.20;;
44955;SDS011;30686;52.512;-1.188;2023-03-14T09:40:21;7.28;;;1.85;;
44955;SDS011;30686;52.512;-1.188;2023-03-14T09:42:52;9.35;;;2.67;;
44955;SDS011;30686;52.512;-1.188;2023-03-14T09:45:26;8.70;;;2.17;;
44955;SDS011;30686;52.512;-1.188;2023-03-14T09:47:54;5.07;;;1.25;;
44955;SDS011;30686;52.512;-1.188;2023-03-14T09:50:23;13.20;;;1.85;;
44955;SDS011;30686;52.512;-1.188;2023-03-14T09:52:59;9.32;;;1.77;;
44955;SDS011;30686;52.512;-1.188;2023-03-14T09:55:29;8.10;;;1.60;;
44955;SDS011;30686;52.512;-1.188;2023-03-14T09:57:57;5.25;;;2.08;;
44955;SDS011;30686;52.512;-1.188;2023-03-14T10:00:28;18.58;;;2.33;;
44955;SDS011;30686;52.512;-1.188;2023-03-14T10:02:56;6.63;;;1.70;;
44955;SDS011;30686;52.512;-1.188;2023-03-14T10:05:24;9.52;;;2.25;;
44955;SDS011;30686;52.512;-1.188;2023-03-14T10:07:50;9.63;;;1.70;;
44955;SDS011;30686;52.512;-1.188;2023-03-14T10:10:18;7.55;;;1.90;;
44955;SDS011;30686;52.512;-1.188;2023-03-14T10:12:54;8.63;;;1.75;;
44955;SDS011;30686;52.512;-1.188;2023-03-14T10:15:24;12.27;;;1.67;;
44955;SDS011;30686;52.512;-1.188;2023-03-14T10:17:53;4.93;;;1.70;;
44955;SDS011;30686;52.512;-1.188;2023-03-14T10:20:30;11.43;;;1.85;;
44955;SDS011;30686;52.512;-1.188;2023-03-14T10:23:07;10.10;;;1.80;;
44955;SDS011;30686;52.512;-1.188;2023-03-14T10:25:52;12.07;;;1.60;;
44955;SDS011;30686;52.512;-1.188;2023-03-14T10:28:27;4.75;;;2.03;;
44955;SDS011;30686;52.512;-1.188;2023-03-14T10:30:55;8.60;;;1.67;;
44955;SDS011;30686;52.512;-1.188;2023-03-14T10:33:25;10.77;;;2.03;;
44955;SDS011;30686;52.512;-1.188;2023-03-14T10:35:55;13.27;;;2.10;;
44955;SDS011;30686;52.512;-1.188;2023-03-14T10:38:25;9.15;;;1.90;;
44955;SDS011;30686;52.512;-1.188;2023-03-14T10:40:52;9.52;;;1.98;;
44955;SDS011;30686;52.512;-1.188;2023-03-14T10:43:21;8.35;;;1.95;;
44955;SDS011;30686;52.512;-1.188;2023-03-14T10:45:52;7.22;;;1.50;;
44955;SDS011;30686;52.512;-1.188;2023-03-14T10:53:24;12.40;;;2.75;;
44955;SDS011;30686;52.512;-1.188;2023-03-14T10:55:50;5.72;;;1.45;;
44955;SDS011;30686;52.512;-1.188;2023-03-14T10:58:27;5.45;;;1.77;;
44955;SDS011;30686;52.512;-1.188;2023-03-14T11:01:18;6.53;;;1.83;;
44955;SDS011;30686;52.512;-1.188;2023-03-14T11:03:45;10.80;;;2.25;;
44955;SDS011;30686;52.512;-1.188;2023-03-14T11:06:28;11.90;;;1.83;;
44955;SDS011;30686;52.512;-1.188;2023-03-14T11:09:02;7.25;;;1.98;;
44955;SDS011;30686;52.512;-1.188;2023-03-14T11:11:31;20.70;;;2.10;;
44955;SDS011;30686;52.512;-1.188;2023-03-14T11:14:04;14.60;;;2.28;;
44955;SDS011;30686;52.512;-1.188;2023-03-14T11:29:40;9.52;;;2.42;;
44955;SDS011;30686;52.512;-1.188;2023-03-14T11:32:46;14.10;;;2.17;;
44955;SDS011;30686;52.512;-1.188;2023-03-14T11:35:12;3.17;;;0.93;;
44955;SDS011;30686;52.512;-1.188;2023-03-14T11:37:50;13.18;;;1.80;;
44955;SDS011;30686;52.512;-1.188;2023-03-14T11:40:20;11.15;;;1.83;;
44955;SDS011;30686;52.512;-1.188;2023-03-14T11:42:48;7.97;;;1.60;;
44955;SDS011;30686;52.512;-1.188;2023-03-14T11:45:20;3.20;;;1.20;;
44955;SDS011;30686;52.512;-1.188;2023-03-14T11:47:51;11.20;;;2.33;;
44955;SDS011;30686;52.512;-1.188;2023-03-14T11:50:23;8.00;;;1.27;;
44955;SDS011;30686;52.512;-1.188;2023-03-14T11:52:51;6.90;;;1.58;;
44955;SDS011;30686;52.512;-1.188;2023-03-14T11:55:23;12.27;;;2.05;;
44955;SDS011;30686;52.512;-1.188;2023-03-14T11:57:51;5.72;;;1.08;;
44955;SDS011;30686;52.512;-1.188;2023-03-14T12:00:20;13.88;;;1.52;;
44955;SDS011;30686;52.512;-1.188;2023-03-14T12:05:58;9.40;;;2.05;;
44955;SDS011;30686;52.512;-1.188;2023-03-14T12:11:10;4.50;;;1.67;;
44955;SDS011;30686;52.512;-1.188;2023-03-14T12:13:38;7.43;;;1.58;;
44955;SDS011;30686;52.512;-1.188;2023-03-14T12:16:07;5.13;;;2.42;;
44955;SDS011;30686;52.512;-1.188;2023-03-14T12:18:43;5.20;;;1.67;;
44955;SDS011;30686;52.512;-1.188;2023-03-14T12:21:10;4.57;;;1.45;;
44955;SDS011;30686;52.512;-1.188;2023-03-14T12:23:48;7.10;;;1.60;;
44955;SDS011;30686;52.512;-1.188;2023-03-14T12:26:21;6.13;;;1.48;;
44955;SDS011;30686;52.512;-1.188;2023-03-14T12:28:51;8.65;;;2.17;;
44955;SDS011;30686;52.512;-1.188;2023-03-14T12:42:12;6.75;;;2.20;;
44955;SDS011;30686;52.512;-1.188;2023-03-14T12:44:45;10.73;;;1.98;;
44955;SDS011;30686;52.512;-1.188;2023-03-14T12:49:49;6.57;;;1.40;;
44955;SDS011;30686;52.512;-1.188;2023-03-14T12:52:20;8.55;;;1.30;;
44955;SDS011;30686;52.512;-1.188;2023-03-14T12:54:49;6.30;;;1.63;;
44955;SDS011;30686;52.512;-1.188;2023-03-14T12:57:36;4.35;;;1.35;;
44955;SDS011;30686;52.512;-1.188;2023-03-14T13:03:18;7.15;;;1.52;;
44955;SDS011;30686;52.512;-1.188;2023-03-14T13:05:55;3.85;;;1.27;;
44955;SDS011;30686;52.512;-1.188;2023-03-14T13:08:32;4.38;;;1.38;;
44955;SDS011;30686;52.512;-1.188;2023-03-14T13:10:58;6.45;;;1.45;;
44955;SDS011;30686;52.512;-1.188;2023-03-14T13:13:25;9.15;;;1.80;;
44955;SDS011;30686;52.512;-1.188;2023-03-14T13:15:57;8.73;;;1.42;;
44955;SDS011;30686;52.512;-1.188;2023-03-14T13:18:48;4.97;;;1.40;;
44955;SDS011;30686;52.512;-1.188;2023-03-14T13:21:18;9.52;;;1.42;;
44955;SDS011;30686;52.512;-1.188;2023-03-14T13:26:21;4.40;;;1.15;;
44955;SDS011;30686;52.512;-1.188;2023-03-14T13:28:47;8.27;;;1.90;;
44955;SDS011;30686;52.512;-1.188;2023-03-14T13:31:21;10.23;;;1.77;;
44955;SDS011;30686;52.512;-1.188;2023-03-14T13:33:59;4.70;;;1.10;;
44955;SDS011;30686;52.512;-1.188;2023-03-14T13:36:28;2.55;;;1.23;;
44955;SDS011;30686;52.512;-1.188;2023-03-14T13:38:58;9.40;;;1.77;;
44955;SDS011;30686;52.512;-1.188;2023-03-14T13:41:26;4.70;;;1.13;;
44955;SDS011;30686;52.512;-1.188;2023-03-14T13:43:56;5.28;;;1.45;;
44955;SDS011;30686;52.512;-1.188;2023-03-14T13:46:24;9.63;;;1.70;;
44955;SDS011;30686;52.512;-1.188;2023-03-14T13:48:58;4.70;;;1.27;;
44955;SDS011;30686;52.512;-1.188;2023-03-14T13:51:25;3.70;;;1.33;;
44955;SDS011;30686;52.512;-1.188;2023-03-14T13:53:55;4.85;;;1.13;;
44955;SDS011;30686;52.512;-1.188;2023-03-14T13:56:22;4.45;;;1.38;;
44955;SDS011;30686;52.512;-1.188;2023-03-14T13:58:49;5.75;;;2.05;;
44955;SDS011;30686;52.512;-1.188;2023-03-14T14:03:48;5.38;;;1.20;;
44955;SDS011;30686;52.512;-1.188;2023-03-14T14:06:27;5.13;;;1.25;;
44955;SDS011;30686;52.512;-1.188;2023-03-14T14:08:55;7.82;;;1.33;;
44955;SDS011;30686;52.512;-1.188;2023-03-14T14:11:25;6.97;;;0.70;;
44955;SDS011;30686;52.512;-1.188;2023-03-14T14:13:57;3.75;;;1.20;;
44955;SDS011;30686;52.512;-1.188;2023-03-14T14:16:24;1.25;;;0.88;;
44955;SDS011;30686;52.512;-1.188;2023-03-14T14:18:51;5.28;;;1.20;;
44955;SDS011;30686;52.512;-1.188;2023-03-14T14:21:21;5.38;;;1.15;;
44955;SDS011;30686;52.512;-1.188;2023-03-14T14:23:50;4.30;;;0.90;;
44955;SDS011;30686;52.512;-1.188;2023-03-14T14:26:16;5.55;;;1.20;;
44955;SDS011;30686;52.512;-1.188;2023-03-14T14:28:46;3.25;;;1.10;;
44955;SDS011;30686;52.512;-1.188;2023-03-14T14:33:42;7.68;;;1.20;;
44955;SDS011;30686;52.512;-1.188;2023-03-14T14:36:17;7.95;;;1.42;;
44955;SDS011;30686;52.512;-1.188;2023-03-14T14:38:50;3.90;;;1.20;;
44955;SDS011;30686;52.512;-1.188;2023-03-14T14:41:20;2.08;;;0.90;;
44955;SDS011;30686;52.512;-1.188;2023-03-14T14:43:46;4.35;;;1.10;;
44955;SDS011;30686;52.512;-1.188;2023-03-14T14:46:15;5.30;;;1.23;;
44955;SDS011;30686;52.512;-1.188;2023-03-14T14:48:45;4.00;;;1.48;;
44955;SDS011;30686;52.512;-1.188;2023-03-14T14:51:22;9.35;;;2.55;;
44955;SDS011;30686;52.512;-1.188;2023-03-14T14:53:48;5.50;;;1.73;;
44955;SDS011;30686;52.512;-1.188;2023-03-14T14:56:27;4.10;;;1.25;;
44955;SDS011;30686;52.512;-1.188;2023-03-14T14:59:00;4.03;;;1.30;;
44955;SDS011;30686;52.512;-1.188;2023-03-14T15:01:32;3.85;;;1.77;;
44955;SDS011;30686;52.512;-1.188;2023-03-14T15:03:59;4.47;;;1.30;;
44955;SDS011;30686;52.512;-1.188;2023-03-14T15:06:28;7.47;;;1.23;;
44955;SDS011;30686;52.512;-1.188;2023-03-14T15:08:54;5.00;;;1.38;;
44955;SDS011;30686;52.512;-1.188;2023-03-14T15:11:22;6.68;;;1.20;;
44955;SDS011;30686;52.512;-1.188;2023-03-14T15:13:49;5.47;;;1.10;;
44955;SDS011;30686;52.512;-1.188;2023-03-14T15:16:16;4.78;;;1.10;;
44955;SDS011;30686;52.512;-1.188;2023-03-14T15:18:43;3.65;;;1.10;;
44955;SDS011;30686;52.512;-1.188;2023-03-14T15:21:14;5.07;;;1.23;;
44955;SDS011;30686;52.512;-1.188;2023-03-14T15:23:40;3.35;;;1.00;;
44955;SDS011;30686;52.512;-1.188;2023-03-14T15:26:17;3.70;;;1.13;;
44955;SDS011;30686;52.512;-1.188;2023-03-14T15:28:44;2.88;;;1.30;;
44955;SDS011;30686;52.512;-1.188;2023-03-14T15:31:11;4.78;;;0.80;;
44955;SDS011;30686;52.512;-1.188;2023-03-14T15:33:38;1.98;;;1.10;;
44955;SDS011;30686;52.512;-1.188;2023-03-14T15:36:06;6.10;;;1.38;;
44955;SDS011;30686;52.512;-1.188;2023-03-14T15:38:32;7.25;;;1.05;;
44955;SDS011;30686;52.512;-1.188;2023-03-14T15:40:59;3.55;;;1.27;;
44955;SDS011;30686;52.512;-1.188;2023-03-14T15:43:25;2.67;;;0.90;;
44955;SDS011;30686;52.512;-1.188;2023-03-14T15:45:52;4.75;;;1.08;;